sensor_id;sensor_type;location;lat;lon;timestamp;P1;durP1;ratioP1;P2;durP2;ratioP2
6821;SDS011;3449;48.728;8.968;2022-10-03T00:01:42;3.67;;;3.27;;
6821;SDS011;3449;48.728;8.968;2022-10-03T00:04:30;6.03;;;3.80;;
6821;SDS011;3449;48.728;8.968;2022-10-03T00:07:14;3.70;;;2.70;;
6821;SDS011;3449;48.728;8.968;2022-10-03T00:09:57;4.20;;;3.10;;
6821;SDS011;3449;48.728;8.968;2022-10-03T00:12:36;13.30;;;3.43;;
6821;SDS011;3449;48.728;8.968;2022-10-03T00:15:15;3.80;;;2.90;;
6821;SDS011;3449;48.728;8.968;2022-10-03T00:17:49;17.83;;;4.30;;
6821;SDS011;3449;48.728;8.968;2022-10-03T00:20:35;6.37;;;3.97;;
6821;SDS011;3449;48.728;8.968;2022-10-03T00:23:15;5.17;;;3.20;;
6821;SDS011;3449;48.728;8.968;2022-10-03T00:25:48;4.63;;;3.50;;
6821;SDS011;3449;48.728;8.968;2022-10-03T00:28:38;3.73;;;3.27;;
6821;SDS011;3449;48.728;8.968;2022-10-03T00:31:15;5.60;;;4.00;;
6821;SDS011;3449;48.728;8.968;2022-10-03T00:33:49;5.40;;;3.60;;
6821;SDS011;3449;48.728;8.968;2022-10-03T00:36:29;4.43;;;3.50;;
6821;SDS011;3449;48.728;8.968;2022-10-03T00:39:14;5.07;;;3.70;;
6821;SDS011;3449;48.728;8.968;2022-10-03T00:42:10;5.00;;;3.93;;
6821;SDS011;3449;48.728;8.968;2022-10-03T00:45:17;4.67;;;3.23;;
6821;SDS011;3449;48.728;8.968;2022-10-03T00:48:31;4.37;;;3.47;;
6821;SDS011;3449;48.728;8.968;2022-10-03T00:51:24;4.37;;;3.47;;
6821;SDS011;3449;48.728;8.968;2022-10-03T00:54:07;3.87;;;3.43;;
6821;SDS011;3449;48.728;8.968;2022-10-03T00:56:55;3.97;;;3.30;;
6821;SDS011;3449;48.728;8.968;2022-10-03T00:59:37;6.00;;;3.40;;
6821;SDS011;3449;48.728;8.968;2022-10-03T01:02:26;5.63;;;3.50;;
6821;SDS011;3449;48.728;8.968;2022-10-03T01:05:06;3.97;;;3.10;;
6821;SDS011;3449;48.728;8.968;2022-10-03T01:10:44;6.00;;;3.80;;
6821;SDS011;3449;48.728;8.968;2022-10-03T01:13:25;9.93;;;3.30;;
6821;SDS011;3449;48.728;8.968;2022-10-03T01:16:04;5.60;;;4.50;;
6821;SDS011;3449;48.728;8.968;2022-10-03T01:18:40;5.63;;;3.90;;
6821;SDS011;3449;48.728;8.968;2022-10-03T01:21:21;4.27;;;3.87;;
6821;SDS011;3449;48.728;8.968;2022-10-03T01:27:02;4.73;;;4.07;;
6821;SDS011;3449;48.728;8.968;2022-10-03T01:29:38;5.80;;;4.87;;
6821;SDS011;3449;48.728;8.968;2022-10-03T01:32:28;7.33;;;5.40;;
6821;SDS011;3449;48.728;8.968;2022-10-03T01:35:03;6.33;;;4.60;;
6821;SDS011;3449;48.728;8.968;2022-10-03T01:37:41;11.90;;;5.13;;
6821;SDS011;3449;48.728;8.968;2022-10-03T01:40:16;7.50;;;4.83;;
6821;SDS011;3449;48.728;8.968;2022-10-03T01:42:53;5.80;;;3.80;;
6821;SDS011;3449;48.728;8.968;2022-10-03T01:45:29;5.70;;;3.73;;
6821;SDS011;3449;48.728;8.968;2022-10-03T01:48:03;4.90;;;3.80;;
6821;SDS011;3449;48.728;8.968;2022-10-03T01:50:33;6.20;;;4.67;;
6821;SDS011;3449;48.728;8.968;2022-10-03T01:53:07;5.73;;;4.40;;
6821;SDS011;3449;48.728;8.968;2022-10-03T01:55:43;8.67;;;5.37;;
6821;SDS011;3449;48.728;8.968;2022-10-03T01:58:21;5.83;;;4.90;;
6821;SDS011;3449;48.728;8.968;2022-10-03T02:00:58;12.27;;;5.00;;
6821;SDS011;3449;48.728;8.968;2022-10-03T02:03:34;8.00;;;5.60;;
6821;SDS011;3449;48.728;8.968;2022-10-03T02:06:12;9.90;;;6.40;;
6821;SDS011;3449;48.728;8.968;2022-10-03T02:08:48;10.03;;;6.17;;
6821;SDS011;3449;48.728;8.968;2022-10-03T02:11:24;8.20;;;6.43;;
6821;SDS011;3449;48.728;8.968;2022-10-03T02:13:57;13.03;;;6.77;;
6821;SDS011;3449;48.728;8.968;2022-10-03T02:16:35;12.03;;;6.57;;
6821;SDS011;3449;48.728;8.968;2022-10-03T02:19:10;8.10;;;6.57;;
6821;SDS011;3449;48.728;8.968;2022-10-03T02:21:46;12.57;;;7.70;;
6821;SDS011;3449;48.728;8.968;2022-10-03T02:24:27;14.60;;;7.27;;
6821;SDS011;3449;48.728;8.968;2022-10-03T02:30:08;12.50;;;7.70;;
6821;SDS011;3449;48.728;8.968;2022-10-03T02:35:49;8.23;;;5.40;;
6821;SDS011;3449;48.728;8.968;2022-10-03T02:38:38;8.77;;;4.60;;
6821;SDS011;3449;48.728;8.968;2022-10-03T02:41:30;7.33;;;4.40;;
6821;SDS011;3449;48.728;8.968;2022-10-03T02:44:35;6.30;;;4.37;;
6821;SDS011;3449;48.728;8.968;2022-10-03T02:50:31;11.27;;;5.20;;
6821;SDS011;3449;48.728;8.968;2022-10-03T02:56:33;11.33;;;6.80;;
6821;SDS011;3449;48.728;8.968;2022-10-03T03:02:33;17.40;;;7.50;;
6821;SDS011;3449;48.728;8.968;2022-10-03T03:08:31;18.23;;;6.63;;
6821;SDS011;3449;48.728;8.968;2022-10-03T03:11:30;11.20;;;6.40;;
6821;SDS011;3449;48.728;8.968;2022-10-03T03:17:23;13.40;;;6.43;;
6821;SDS011;3449;48.728;8.968;2022-10-03T03:20:13;23.93;;;6.67;;
6821;SDS011;3449;48.728;8.968;2022-10-03T03:23:01;26.33;;;7.37;;
6821;SDS011;3449;48.728;8.968;2022-10-03T03:25:50;13.33;;;6.03;;
6821;SDS011;3449;48.728;8.968;2022-10-03T03:28:31;11.97;;;6.40;;
6821;SDS011;3449;48.728;8.968;2022-10-03T03:31:08;20.10;;;5.73;;
6821;SDS011;3449;48.728;8.968;2022-10-03T03:33:41;11.10;;;6.13;;
6821;SDS011;3449;48.728;8.968;2022-10-03T03:36:21;12.47;;;7.13;;
6821;SDS011;3449;48.728;8.968;2022-10-03T03:38:55;18.10;;;5.63;;
6821;SDS011;3449;48.728;8.968;2022-10-03T03:41:45;20.57;;;5.70;;
6821;SDS011;3449;48.728;8.968;2022-10-03T03:44:41;21.37;;;6.17;;
6821;SDS011;3449;48.728;8.968;2022-10-03T03:47:34;14.03;;;6.70;;
6821;SDS011;3449;48.728;8.968;2022-10-03T03:50:25;22.63;;;6.40;;
6821;SDS011;3449;48.728;8.968;2022-10-03T03:53:09;24.33;;;7.00;;
6821;SDS011;3449;48.728;8.968;2022-10-03T03:55:55;17.10;;;7.03;;
6821;SDS011;3449;48.728;8.968;2022-10-03T03:58:33;31.03;;;7.70;;
6821;SDS011;3449;48.728;8.968;2022-10-03T04:01:18;19.07;;;6.20;;
6821;SDS011;3449;48.728;8.968;2022-10-03T04:04:06;25.27;;;6.50;;
6821;SDS011;3449;48.728;8.968;2022-10-03T04:06:46;18.73;;;7.27;;
6821;SDS011;3449;48.728;8.968;2022-10-03T04:09:30;12.40;;;5.17;;
6821;SDS011;3449;48.728;8.968;2022-10-03T04:12:26;16.17;;;5.47;;
6821;SDS011;3449;48.728;8.968;2022-10-03T04:15:10;17.97;;;4.73;;
6821;SDS011;3449;48.728;8.968;2022-10-03T04:17:50;11.83;;;5.50;;
6821;SDS011;3449;48.728;8.968;2022-10-03T04:20:47;17.27;;;7.13;;
6821;SDS011;3449;48.728;8.968;2022-10-03T04:23:30;12.47;;;6.57;;
6821;SDS011;3449;48.728;8.968;2022-10-03T04:26:18;13.97;;;5.90;;
6821;SDS011;3449;48.728;8.968;2022-10-03T04:29:01;10.30;;;5.10;;
6821;SDS011;3449;48.728;8.968;2022-10-03T04:31:52;10.53;;;5.90;;
6821;SDS011;3449;48.728;8.968;2022-10-03T04:34:34;20.63;;;6.77;;
6821;SDS011;3449;48.728;8.968;2022-10-03T04:37:11;20.30;;;7.37;;
6821;SDS011;3449;48.728;8.968;2022-10-03T04:39:51;13.17;;;6.30;;
6821;SDS011;3449;48.728;8.968;2022-10-03T04:42:31;14.77;;;7.83;;
6821;SDS011;3449;48.728;8.968;2022-10-03T04:45:11;17.47;;;7.40;;
6821;SDS011;3449;48.728;8.968;2022-10-03T04:47:52;16.70;;;7.50;;
6821;SDS011;3449;48.728;8.968;2022-10-03T04:50:24;13.20;;;7.50;;
6821;SDS011;3449;48.728;8.968;2022-10-03T04:53:09;15.37;;;7.10;;
6821;SDS011;3449;48.728;8.968;2022-10-03T04:55:45;17.33;;;8.67;;
6821;SDS011;3449;48.728;8.968;2022-10-03T04:58:16;16.83;;;7.50;;
6821;SDS011;3449;48.728;8.968;2022-10-03T05:00:58;17.50;;;9.10;;
6821;SDS011;3449;48.728;8.968;2022-10-03T05:03:36;16.93;;;8.57;;
6821;SDS011;3449;48.728;8.968;2022-10-03T05:06:17;20.57;;;8.00;;
6821;SDS011;3449;48.728;8.968;2022-10-03T05:09:03;23.53;;;8.63;;
6821;SDS011;3449;48.728;8.968;2022-10-03T05:11:45;22.97;;;10.70;;
6821;SDS011;3449;48.728;8.968;2022-10-03T05:14:23;25.23;;;10.90;;
6821;SDS011;3449;48.728;8.968;2022-10-03T05:16:59;16.77;;;8.90;;
6821;SDS011;3449;48.728;8.968;2022-10-03T05:22:35;18.93;;;8.90;;
6821;SDS011;3449;48.728;8.968;2022-10-03T05:25:12;18.13;;;9.10;;
6821;SDS011;3449;48.728;8.968;2022-10-03T05:27:50;19.40;;;6.63;;
6821;SDS011;3449;48.728;8.968;2022-10-03T05:30:24;20.03;;;5.83;;
6821;SDS011;3449;48.728;8.968;2022-10-03T05:33:02;10.50;;;5.63;;
6821;SDS011;3449;48.728;8.968;2022-10-03T05:35:45;8.73;;;6.00;;
6821;SDS011;3449;48.728;8.968;2022-10-03T05:38:28;14.43;;;6.37;;
6821;SDS011;3449;48.728;8.968;2022-10-03T05:41:18;11.83;;;7.03;;
6821;SDS011;3449;48.728;8.968;2022-10-03T05:43:54;16.23;;;7.20;;
6821;SDS011;3449;48.728;8.968;2022-10-03T05:46:39;13.53;;;7.73;;
6821;SDS011;3449;48.728;8.968;2022-10-03T05:49:17;18.97;;;9.13;;
6821;SDS011;3449;48.728;8.968;2022-10-03T05:52:17;14.43;;;8.43;;
6821;SDS011;3449;48.728;8.968;2022-10-03T05:55:03;20.83;;;10.73;;
6821;SDS011;3449;48.728;8.968;2022-10-03T06:01:06;18.77;;;11.30;;
6821;SDS011;3449;48.728;8.968;2022-10-03T06:07:04;23.03;;;11.70;;
6821;SDS011;3449;48.728;8.968;2022-10-03T06:09:50;21.40;;;12.03;;
6821;SDS011;3449;48.728;8.968;2022-10-03T06:12:32;20.67;;;12.00;;
6821;SDS011;3449;48.728;8.968;2022-10-03T06:15:11;18.70;;;10.23;;
6821;SDS011;3449;48.728;8.968;2022-10-03T06:18:22;31.80;;;13.60;;
6821;SDS011;3449;48.728;8.968;2022-10-03T06:21:17;26.43;;;11.23;;
6821;SDS011;3449;48.728;8.968;2022-10-03T06:24:01;23.10;;;11.17;;
6821;SDS011;3449;48.728;8.968;2022-10-03T06:27:05;28.57;;;11.10;;
6821;SDS011;3449;48.728;8.968;2022-10-03T06:29:57;26.90;;;11.17;;
6821;SDS011;3449;48.728;8.968;2022-10-03T06:32:48;38.40;;;12.40;;
6821;SDS011;3449;48.728;8.968;2022-10-03T06:42:21;20.83;;;12.47;;
6821;SDS011;3449;48.728;8.968;2022-10-03T06:51:34;27.70;;;12.60;;
6821;SDS011;3449;48.728;8.968;2022-10-03T06:54:47;27.50;;;13.10;;
6821;SDS011;3449;48.728;8.968;2022-10-03T06:57:43;27.47;;;13.30;;
6821;SDS011;3449;48.728;8.968;2022-10-03T07:00:31;33.23;;;13.87;;
6821;SDS011;3449;48.728;8.968;2022-10-03T07:03:20;25.80;;;13.20;;
6821;SDS011;3449;48.728;8.968;2022-10-03T07:06:22;32.13;;;12.50;;
6821;SDS011;3449;48.728;8.968;2022-10-03T07:09:32;22.03;;;11.40;;
6821;SDS011;3449;48.728;8.968;2022-10-03T07:12:35;26.33;;;12.40;;
6821;SDS011;3449;48.728;8.968;2022-10-03T07:15:31;28.10;;;11.47;;
6821;SDS011;3449;48.728;8.968;2022-10-03T07:18:23;22.00;;;12.57;;
6821;SDS011;3449;48.728;8.968;2022-10-03T07:22:02;26.13;;;12.40;;
6821;SDS011;3449;48.728;8.968;2022-10-03T07:28:02;21.10;;;11.50;;
6821;SDS011;3449;48.728;8.968;2022-10-03T07:31:06;19.23;;;11.47;;
6821;SDS011;3449;48.728;8.968;2022-10-03T07:34:05;27.00;;;13.70;;
6821;SDS011;3449;48.728;8.968;2022-10-03T07:36:57;25.10;;;13.23;;
6821;SDS011;3449;48.728;8.968;2022-10-03T07:40:14;25.17;;;13.07;;
6821;SDS011;3449;48.728;8.968;2022-10-03T07:43:04;20.27;;;12.73;;
6821;SDS011;3449;48.728;8.968;2022-10-03T07:46:06;26.60;;;12.03;;
6821;SDS011;3449;48.728;8.968;2022-10-03T07:48:57;25.23;;;11.97;;
6821;SDS011;3449;48.728;8.968;2022-10-03T07:51:35;23.50;;;12.97;;
6821;SDS011;3449;48.728;8.968;2022-10-03T07:57:04;24.67;;;12.50;;
6821;SDS011;3449;48.728;8.968;2022-10-03T07:59:57;26.27;;;12.77;;
6821;SDS011;3449;48.728;8.968;2022-10-03T08:06:10;22.97;;;12.50;;
6821;SDS011;3449;48.728;8.968;2022-10-03T08:08:53;29.00;;;14.63;;
6821;SDS011;3449;48.728;8.968;2022-10-03T08:11:35;36.17;;;14.07;;
6821;SDS011;3449;48.728;8.968;2022-10-03T08:14:36;26.27;;;12.93;;
6821;SDS011;3449;48.728;8.968;2022-10-03T08:17:18;19.93;;;11.13;;
6821;SDS011;3449;48.728;8.968;2022-10-03T08:20:28;26.60;;;11.43;;
6821;SDS011;3449;48.728;8.968;2022-10-03T08:23:39;22.47;;;12.77;;
6821;SDS011;3449;48.728;8.968;2022-10-03T08:26:33;21.43;;;12.50;;
6821;SDS011;3449;48.728;8.968;2022-10-03T08:29:26;22.03;;;12.17;;
6821;SDS011;3449;48.728;8.968;2022-10-03T08:32:42;26.40;;;11.33;;
6821;SDS011;3449;48.728;8.968;2022-10-03T08:41:35;24.33;;;10.60;;
6821;SDS011;3449;48.728;8.968;2022-10-03T08:44:37;17.93;;;9.67;;
6821;SDS011;3449;48.728;8.968;2022-10-03T08:50:24;16.67;;;8.83;;
6821;SDS011;3449;48.728;8.968;2022-10-03T08:56:13;28.50;;;9.13;;
6821;SDS011;3449;48.728;8.968;2022-10-03T09:01:44;10.97;;;7.53;;
6821;SDS011;3449;48.728;8.968;2022-10-03T09:04:36;16.60;;;6.90;;
6821;SDS011;3449;48.728;8.968;2022-10-03T09:13:34;15.33;;;6.40;;
6821;SDS011;3449;48.728;8.968;2022-10-03T09:16:36;10.57;;;6.30;;
6821;SDS011;3449;48.728;8.968;2022-10-03T09:19:29;10.90;;;6.50;;
6821;SDS011;3449;48.728;8.968;2022-10-03T09:22:19;16.00;;;8.10;;
6821;SDS011;3449;48.728;8.968;2022-10-03T09:31:16;15.10;;;8.10;;
6821;SDS011;3449;48.728;8.968;2022-10-03T09:33:59;12.57;;;7.07;;
6821;SDS011;3449;48.728;8.968;2022-10-03T09:39:57;9.80;;;6.53;;
6821;SDS011;3449;48.728;8.968;2022-10-03T09:42:49;13.80;;;7.27;;
6821;SDS011;3449;48.728;8.968;2022-10-03T09:48:38;19.67;;;6.70;;
6821;SDS011;3449;48.728;8.968;2022-10-03T09:51:23;16.63;;;6.30;;
6821;SDS011;3449;48.728;8.968;2022-10-03T09:54:20;11.60;;;5.13;;
6821;SDS011;3449;48.728;8.968;2022-10-03T10:03:20;9.47;;;5.43;;
6821;SDS011;3449;48.728;8.968;2022-10-03T10:06:33;13.10;;;7.23;;
6821;SDS011;3449;48.728;8.968;2022-10-03T10:09:34;11.30;;;6.83;;
6821;SDS011;3449;48.728;8.968;2022-10-03T10:12:26;10.00;;;6.10;;
6821;SDS011;3449;48.728;8.968;2022-10-03T10:30:50;12.10;;;6.10;;
6821;SDS011;3449;48.728;8.968;2022-10-03T10:34:01;9.93;;;5.30;;
6821;SDS011;3449;48.728;8.968;2022-10-03T10:55:49;12.53;;;6.57;;
6821;SDS011;3449;48.728;8.968;2022-10-03T10:58:50;13.67;;;7.00;;
6821;SDS011;3449;48.728;8.968;2022-10-03T11:11:27;17.50;;;5.33;;
6821;SDS011;3449;48.728;8.968;2022-10-03T11:14:26;12.60;;;6.30;;
6821;SDS011;3449;48.728;8.968;2022-10-03T11:17:26;16.80;;;6.33;;
6821;SDS011;3449;48.728;8.968;2022-10-03T11:20:15;9.97;;;5.00;;
6821;SDS011;3449;48.728;8.968;2022-10-03T11:23:15;11.40;;;5.30;;
6821;SDS011;3449;48.728;8.968;2022-10-03T11:26:12;7.40;;;4.77;;
6821;SDS011;3449;48.728;8.968;2022-10-03T11:29:13;8.63;;;5.00;;
6821;SDS011;3449;48.728;8.968;2022-10-03T11:32:14;7.17;;;4.90;;
6821;SDS011;3449;48.728;8.968;2022-10-03T11:37:54;11.20;;;4.20;;
6821;SDS011;3449;48.728;8.968;2022-10-03T11:40:34;7.10;;;4.27;;
6821;SDS011;3449;48.728;8.968;2022-10-03T11:46:15;9.60;;;4.60;;
6821;SDS011;3449;48.728;8.968;2022-10-03T11:48:56;9.43;;;4.40;;
6821;SDS011;3449;48.728;8.968;2022-10-03T11:51:34;6.60;;;4.30;;
6821;SDS011;3449;48.728;8.968;2022-10-03T11:54:07;9.90;;;4.63;;
6821;SDS011;3449;48.728;8.968;2022-10-03T11:56:45;9.87;;;4.40;;
6821;SDS011;3449;48.728;8.968;2022-10-03T11:59:27;18.10;;;5.60;;
6821;SDS011;3449;48.728;8.968;2022-10-03T12:02:16;7.20;;;4.67;;
6821;SDS011;3449;48.728;8.968;2022-10-03T12:04:55;6.07;;;4.57;;
6821;SDS011;3449;48.728;8.968;2022-10-03T12:07:32;9.67;;;4.40;;
6821;SDS011;3449;48.728;8.968;2022-10-03T12:10:28;11.50;;;4.57;;
6821;SDS011;3449;48.728;8.968;2022-10-03T12:13:04;18.13;;;4.53;;
6821;SDS011;3449;48.728;8.968;2022-10-03T12:15:39;8.67;;;4.60;;
6821;SDS011;3449;48.728;8.968;2022-10-03T12:18:12;7.77;;;4.77;;
6821;SDS011;3449;48.728;8.968;2022-10-03T12:23:39;6.33;;;3.30;;
6821;SDS011;3449;48.728;8.968;2022-10-03T12:26:35;8.37;;;3.87;;
6821;SDS011;3449;48.728;8.968;2022-10-03T12:29:09;7.17;;;3.50;;
6821;SDS011;3449;48.728;8.968;2022-10-03T12:31:38;6.90;;;3.67;;
6821;SDS011;3449;48.728;8.968;2022-10-03T12:34:17;13.43;;;3.37;;
6821;SDS011;3449;48.728;8.968;2022-10-03T12:37:08;6.23;;;4.00;;
6821;SDS011;3449;48.728;8.968;2022-10-03T12:39:53;8.30;;;3.17;;
6821;SDS011;3449;48.728;8.968;2022-10-03T12:42:30;6.53;;;3.37;;
6821;SDS011;3449;48.728;8.968;2022-10-03T12:45:07;12.30;;;4.23;;
6821;SDS011;3449;48.728;8.968;2022-10-03T12:47:44;6.10;;;2.90;;
6821;SDS011;3449;48.728;8.968;2022-10-03T12:50:38;3.97;;;3.00;;
6821;SDS011;3449;48.728;8.968;2022-10-03T12:56:04;4.80;;;2.67;;
6821;SDS011;3449;48.728;8.968;2022-10-03T13:01:51;6.17;;;2.70;;
6821;SDS011;3449;48.728;8.968;2022-10-03T13:04:36;4.60;;;3.17;;
6821;SDS011;3449;48.728;8.968;2022-10-03T13:07:24;6.37;;;2.30;;
6821;SDS011;3449;48.728;8.968;2022-10-03T13:10:00;2.23;;;2.00;;
6821;SDS011;3449;48.728;8.968;2022-10-03T13:12:37;10.27;;;3.13;;
6821;SDS011;3449;48.728;8.968;2022-10-03T13:15:35;8.73;;;2.23;;
6821;SDS011;3449;48.728;8.968;2022-10-03T13:18:12;4.23;;;2.30;;
6821;SDS011;3449;48.728;8.968;2022-10-03T13:21:00;4.40;;;2.53;;
6821;SDS011;3449;48.728;8.968;2022-10-03T13:23:35;6.83;;;3.10;;
6821;SDS011;3449;48.728;8.968;2022-10-03T13:26:10;4.63;;;3.07;;
6821;SDS011;3449;48.728;8.968;2022-10-03T13:28:48;8.53;;;2.40;;
6821;SDS011;3449;48.728;8.968;2022-10-03T13:31:38;9.27;;;2.40;;
6821;SDS011;3449;48.728;8.968;2022-10-03T13:34:19;7.10;;;2.47;;
6821;SDS011;3449;48.728;8.968;2022-10-03T13:36:52;3.57;;;2.57;;
6821;SDS011;3449;48.728;8.968;2022-10-03T13:39:23;4.10;;;2.60;;
6821;SDS011;3449;48.728;8.968;2022-10-03T13:42:05;7.77;;;2.40;;
6821;SDS011;3449;48.728;8.968;2022-10-03T13:44:38;6.40;;;2.00;;
6821;SDS011;3449;48.728;8.968;2022-10-03T13:47:12;5.33;;;2.73;;
6821;SDS011;3449;48.728;8.968;2022-10-03T13:49:51;5.03;;;2.60;;
6821;SDS011;3449;48.728;8.968;2022-10-03T13:52:22;3.33;;;2.50;;
6821;SDS011;3449;48.728;8.968;2022-10-03T13:58:00;5.77;;;2.10;;
6821;SDS011;3449;48.728;8.968;2022-10-03T14:00:47;8.83;;;2.20;;
6821;SDS011;3449;48.728;8.968;2022-10-03T14:03:24;3.47;;;2.13;;
6821;SDS011;3449;48.728;8.968;2022-10-03T14:06:09;7.83;;;2.93;;
6821;SDS011;3449;48.728;8.968;2022-10-03T14:11:43;4.17;;;1.90;;
6821;SDS011;3449;48.728;8.968;2022-10-03T14:14:24;4.87;;;2.60;;
6821;SDS011;3449;48.728;8.968;2022-10-03T14:17:07;4.73;;;2.40;;
6821;SDS011;3449;48.728;8.968;2022-10-03T14:19:42;2.40;;;2.10;;
6821;SDS011;3449;48.728;8.968;2022-10-03T14:22:32;5.90;;;2.47;;
6821;SDS011;3449;48.728;8.968;2022-10-03T14:25:13;5.90;;;2.40;;
6821;SDS011;3449;48.728;8.968;2022-10-03T14:27:49;5.80;;;1.90;;
6821;SDS011;3449;48.728;8.968;2022-10-03T14:30:19;6.30;;;2.40;;
6821;SDS011;3449;48.728;8.968;2022-10-03T14:33:03;5.20;;;2.20;;
6821;SDS011;3449;48.728;8.968;2022-10-03T14:35:42;4.63;;;2.10;;
6821;SDS011;3449;48.728;8.968;2022-10-03T14:38:29;5.27;;;2.70;;
6821;SDS011;3449;48.728;8.968;2022-10-03T14:41:29;3.57;;;2.20;;
6821;SDS011;3449;48.728;8.968;2022-10-03T14:44:19;2.47;;;1.93;;
6821;SDS011;3449;48.728;8.968;2022-10-03T14:46:50;4.73;;;2.20;;
6821;SDS011;3449;48.728;8.968;2022-10-03T14:49:23;2.60;;;2.00;;
6821;SDS011;3449;48.728;8.968;2022-10-03T14:51:57;6.47;;;2.87;;
6821;SDS011;3449;48.728;8.968;2022-10-03T14:54:27;7.23;;;2.53;;
6821;SDS011;3449;48.728;8.968;2022-10-03T14:56:56;8.40;;;3.20;;
6821;SDS011;3449;48.728;8.968;2022-10-03T14:59:26;6.50;;;2.63;;
6821;SDS011;3449;48.728;8.968;2022-10-03T15:01:57;6.47;;;2.20;;
6821;SDS011;3449;48.728;8.968;2022-10-03T15:04:28;2.53;;;1.80;;
6821;SDS011;3449;48.728;8.968;2022-10-03T15:06:58;6.67;;;2.67;;
6821;SDS011;3449;48.728;8.968;2022-10-03T15:09:31;5.30;;;2.40;;
6821;SDS011;3449;48.728;8.968;2022-10-03T15:12:07;2.73;;;2.27;;
6821;SDS011;3449;48.728;8.968;2022-10-03T15:14:41;9.70;;;2.67;;
6821;SDS011;3449;48.728;8.968;2022-10-03T15:17:16;6.43;;;2.50;;
6821;SDS011;3449;48.728;8.968;2022-10-03T15:19:47;5.90;;;2.17;;
6821;SDS011;3449;48.728;8.968;2022-10-03T15:22:25;2.97;;;2.03;;
6821;SDS011;3449;48.728;8.968;2022-10-03T15:24:58;6.77;;;2.20;;
6821;SDS011;3449;48.728;8.968;2022-10-03T15:27:30;6.57;;;2.67;;
6821;SDS011;3449;48.728;8.968;2022-10-03T15:30:00;5.33;;;2.17;;
6821;SDS011;3449;48.728;8.968;2022-10-03T15:32:32;5.90;;;2.40;;
6821;SDS011;3449;48.728;8.968;2022-10-03T15:35:02;12.07;;;3.87;;
6821;SDS011;3449;48.728;8.968;2022-10-03T15:37:31;11.67;;;4.00;;
6821;SDS011;3449;48.728;8.968;2022-10-03T15:40:03;4.00;;;2.40;;
6821;SDS011;3449;48.728;8.968;2022-10-03T15:42:42;6.70;;;2.97;;
6821;SDS011;3449;48.728;8.968;2022-10-03T15:45:18;10.33;;;3.00;;
6821;SDS011;3449;48.728;8.968;2022-10-03T15:47:49;4.27;;;3.20;;
6821;SDS011;3449;48.728;8.968;2022-10-03T15:50:18;4.83;;;2.57;;
6821;SDS011;3449;48.728;8.968;2022-10-03T15:52:49;8.93;;;2.37;;
6821;SDS011;3449;48.728;8.968;2022-10-03T15:55:18;6.00;;;2.50;;
6821;SDS011;3449;48.728;8.968;2022-10-03T15:57:51;15.37;;;3.57;;
6821;SDS011;3449;48.728;8.968;2022-10-03T16:00:29;5.10;;;2.43;;
6821;SDS011;3449;48.728;8.968;2022-10-03T16:02:59;6.57;;;3.00;;
6821;SDS011;3449;48.728;8.968;2022-10-03T16:05:37;8.80;;;2.57;;
6821;SDS011;3449;48.728;8.968;2022-10-03T16:08:15;4.03;;;2.73;;
6821;SDS011;3449;48.728;8.968;2022-10-03T16:10:47;4.97;;;2.63;;
6821;SDS011;3449;48.728;8.968;2022-10-03T16:13:26;6.20;;;2.70;;
6821;SDS011;3449;48.728;8.968;2022-10-03T16:18:52;5.27;;;2.67;;
6821;SDS011;3449;48.728;8.968;2022-10-03T16:21:29;4.10;;;2.60;;
6821;SDS011;3449;48.728;8.968;2022-10-03T16:24:21;11.30;;;3.33;;
6821;SDS011;3449;48.728;8.968;2022-10-03T16:26:56;7.10;;;3.17;;
6821;SDS011;3449;48.728;8.968;2022-10-03T16:29:32;6.63;;;2.80;;
6821;SDS011;3449;48.728;8.968;2022-10-03T16:32:04;4.87;;;2.53;;
6821;SDS011;3449;48.728;8.968;2022-10-03T16:34:33;4.30;;;2.50;;
6821;SDS011;3449;48.728;8.968;2022-10-03T16:37:14;5.90;;;3.20;;
6821;SDS011;3449;48.728;8.968;2022-10-03T16:39:44;8.50;;;3.83;;
6821;SDS011;3449;48.728;8.968;2022-10-03T16:42:19;7.23;;;2.57;;
6821;SDS011;3449;48.728;8.968;2022-10-03T16:44:50;3.60;;;3.00;;
6821;SDS011;3449;48.728;8.968;2022-10-03T16:47:26;8.07;;;3.47;;
6821;SDS011;3449;48.728;8.968;2022-10-03T16:49:56;9.63;;;2.43;;
6821;SDS011;3449;48.728;8.968;2022-10-03T16:52:44;5.90;;;3.27;;
6821;SDS011;3449;48.728;8.968;2022-10-03T16:55:14;5.17;;;3.50;;
6821;SDS011;3449;48.728;8.968;2022-10-03T16:57:44;6.80;;;3.17;;
6821;SDS011;3449;48.728;8.968;2022-10-03T17:00:15;4.30;;;3.07;;
6821;SDS011;3449;48.728;8.968;2022-10-03T17:02:48;6.10;;;3.47;;
6821;SDS011;3449;48.728;8.968;2022-10-03T17:05:15;7.83;;;3.17;;
6821;SDS011;3449;48.728;8.968;2022-10-03T17:07:44;9.43;;;3.33;;
6821;SDS011;3449;48.728;8.968;2022-10-03T17:10:20;5.63;;;3.60;;
6821;SDS011;3449;48.728;8.968;2022-10-03T17:12:54;6.90;;;3.97;;
6821;SDS011;3449;48.728;8.968;2022-10-03T17:15:24;9.10;;;3.70;;
6821;SDS011;3449;48.728;8.968;2022-10-03T17:17:56;10.23;;;4.80;;
6821;SDS011;3449;48.728;8.968;2022-10-03T17:20:33;10.67;;;5.60;;
6821;SDS011;3449;48.728;8.968;2022-10-03T17:23:07;6.80;;;3.50;;
6821;SDS011;3449;48.728;8.968;2022-10-03T17:25:41;9.83;;;4.87;;
6821;SDS011;3449;48.728;8.968;2022-10-03T17:28:18;8.57;;;4.50;;
6821;SDS011;3449;48.728;8.968;2022-10-03T17:30:56;4.60;;;3.47;;
6821;SDS011;3449;48.728;8.968;2022-10-03T17:33:30;6.53;;;3.70;;
6821;SDS011;3449;48.728;8.968;2022-10-03T17:36:09;10.87;;;3.43;;
6821;SDS011;3449;48.728;8.968;2022-10-03T17:39:03;12.10;;;3.23;;
6821;SDS011;3449;48.728;8.968;2022-10-03T17:41:35;13.03;;;4.97;;
6821;SDS011;3449;48.728;8.968;2022-10-03T17:44:13;10.40;;;5.07;;
6821;SDS011;3449;48.728;8.968;2022-10-03T17:46:49;10.00;;;4.80;;
6821;SDS011;3449;48.728;8.968;2022-10-03T17:49:26;10.27;;;4.73;;
6821;SDS011;3449;48.728;8.968;2022-10-03T17:52:04;6.07;;;3.50;;
6821;SDS011;3449;48.728;8.968;2022-10-03T17:54:39;7.83;;;4.07;;
6821;SDS011;3449;48.728;8.968;2022-10-03T17:57:11;8.67;;;4.73;;
6821;SDS011;3449;48.728;8.968;2022-10-03T17:59:43;7.37;;;4.07;;
6821;SDS011;3449;48.728;8.968;2022-10-03T18:02:16;9.73;;;4.43;;
6821;SDS011;3449;48.728;8.968;2022-10-03T18:04:46;9.50;;;4.53;;
6821;SDS011;3449;48.728;8.968;2022-10-03T18:07:21;18.47;;;7.87;;
6821;SDS011;3449;48.728;8.968;2022-10-03T18:09:51;11.10;;;7.30;;
6821;SDS011;3449;48.728;8.968;2022-10-03T18:12:20;11.80;;;6.23;;
6821;SDS011;3449;48.728;8.968;2022-10-03T18:17:53;10.97;;;6.80;;
6821;SDS011;3449;48.728;8.968;2022-10-03T18:20:38;12.93;;;6.70;;
6821;SDS011;3449;48.728;8.968;2022-10-03T18:23:16;14.57;;;5.60;;
6821;SDS011;3449;48.728;8.968;2022-10-03T18:25:49;10.67;;;5.20;;
6821;SDS011;3449;48.728;8.968;2022-10-03T18:28:30;8.90;;;5.17;;
6821;SDS011;3449;48.728;8.968;2022-10-03T18:31:01;6.33;;;4.80;;
6821;SDS011;3449;48.728;8.968;2022-10-03T18:33:33;13.47;;;7.10;;
6821;SDS011;3449;48.728;8.968;2022-10-03T18:36:14;15.27;;;7.60;;
6821;SDS011;3449;48.728;8.968;2022-10-03T18:38:44;10.83;;;6.10;;
6821;SDS011;3449;48.728;8.968;2022-10-03T18:41:13;9.63;;;5.43;;
6821;SDS011;3449;48.728;8.968;2022-10-03T18:43:43;9.03;;;5.17;;
6821;SDS011;3449;48.728;8.968;2022-10-03T18:46:12;11.30;;;5.70;;
6821;SDS011;3449;48.728;8.968;2022-10-03T18:48:54;16.20;;;7.30;;
6821;SDS011;3449;48.728;8.968;2022-10-03T18:51:32;9.40;;;6.33;;
6821;SDS011;3449;48.728;8.968;2022-10-03T18:54:02;14.87;;;7.30;;
6821;SDS011;3449;48.728;8.968;2022-10-03T18:56:33;18.50;;;7.07;;
6821;SDS011;3449;48.728;8.968;2022-10-03T18:59:06;12.73;;;7.10;;
6821;SDS011;3449;48.728;8.968;2022-10-03T19:01:41;17.80;;;8.63;;
6821;SDS011;3449;48.728;8.968;2022-10-03T19:04:16;13.13;;;7.70;;
6821;SDS011;3449;48.728;8.968;2022-10-03T19:06:49;19.17;;;7.00;;
6821;SDS011;3449;48.728;8.968;2022-10-03T19:09:20;15.73;;;8.23;;
6821;SDS011;3449;48.728;8.968;2022-10-03T19:11:52;16.03;;;8.40;;
6821;SDS011;3449;48.728;8.968;2022-10-03T19:14:26;13.53;;;7.97;;
6821;SDS011;3449;48.728;8.968;2022-10-03T19:17:06;10.73;;;6.57;;
6821;SDS011;3449;48.728;8.968;2022-10-03T19:19:50;14.23;;;6.83;;
6821;SDS011;3449;48.728;8.968;2022-10-03T19:22:26;10.33;;;6.60;;
6821;SDS011;3449;48.728;8.968;2022-10-03T19:24:56;17.37;;;6.37;;
6821;SDS011;3449;48.728;8.968;2022-10-03T19:27:37;12.33;;;6.67;;
6821;SDS011;3449;48.728;8.968;2022-10-03T19:30:06;7.70;;;5.97;;